Alpha, IL

7:41 AM CDT on August 29, 2015 (GMT -0500)
East Burch St | | Change Station
CLOSE
Current Station
Personal Weather Station
Location: Wataga, IL
Elevation: 840 ft
Nearby Weather Stations

Elev 840 ft 41.03 °N, 90.28 °W | Updated 1 second ago

Overcast
Overcast
66.4 °F
Feels Like 66.4 °F
N
2.0
Wind Variable Wind from SSW
Gusts 4.0 mph

Today
High -- | Low -- °F
--% Chance of Precip.
Yesterday
High -- | Low -- °F
Precip. -- in
6:24 AM 7:39 PM
Full, 100% visible
Pressure 29.98 in
Visibility 10.0 miles
Clouds Scattered Clouds 6000 ft
Dew Point 63 °F
Humidity 90%
Rainfall 0.00 in
Snow Depth Not available.
UV 0 out of 12
Pollen 1.20 out of 12
Air Quality Not available.
Flu Activity Not available.
METAR KGBG 291215Z AUTO 17005KT 10SM SCT060 19/17 A2998 RMK AO2 T01870168
Pressure 29.98 in
Visibility 10.0 miles
Clouds Scattered Clouds 6000 ft
Dew Point 63 °F
Humidity 90%
Rainfall 0.00 in
Snow Depth Not available.
UV 0 out of 12
Pollen 1.20 out of 12
Air Quality Not available.
Flu Activity Not available.
METAR KGBG 291215Z AUTO 17005KT 10SM SCT060 19/17 A2998 RMK AO2 T01870168

10-Day Weather Forecast

×

Almanac

Astronomy

Aug. 29, 2015 Rise Set
Actual Time
Civil Twilight
Nautical Twilight
Astronomical Twilight
Moon
Length of Visible Light
Length of Day
Tomorrow will be .
, % of the Moon is Illuminated

Today's Extremes

State Highs State Lows

Community

WunderPhotos

Upload Photos

1,850,677 photos uploaded!

WunderBlogs® & News

Nearby

Air Quality

  Air Quality AQ Index Pollutant
Not available.

Snow Depth

Station Depth Elevation

Earthquake Activity

City Distance Mag. Time & Date
Minimum magnitude displayed is 2.5.

Coastal Water Temperatures

Place Temperature

Stations

Nearby Weather Stations

Station Location Temp. Windchill Dew Point Humidity Wind Precip. Elev Updated Type